sensor_id;sensor_type;location;lat;lon;timestamp;P1;durP1;ratioP1;P2;durP2;ratioP2
5428;SDS011;2737;52.386;9.980;2023-07-13T00:01:49;4.20;;;2.07;;
5428;SDS011;2737;52.386;9.980;2023-07-13T00:04:17;2.45;;;1.60;;
5428;SDS011;2737;52.386;9.980;2023-07-13T00:06:44;4.63;;;1.73;;
5428;SDS011;2737;52.386;9.980;2023-07-13T00:09:12;3.50;;;1.63;;
5428;SDS011;2737;52.386;9.980;2023-07-13T00:11:39;5.23;;;1.90;;
5428;SDS011;2737;52.386;9.980;2023-07-13T00:14:07;3.50;;;1.90;;
5428;SDS011;2737;52.386;9.980;2023-07-13T00:16:35;4.13;;;1.93;;
5428;SDS011;2737;52.386;9.980;2023-07-13T00:19:05;4.70;;;2.23;;
5428;SDS011;2737;52.386;9.980;2023-07-13T00:21:32;2.37;;;1.90;;
5428;SDS011;2737;52.386;9.980;2023-07-13T00:24:00;5.73;;;2.17;;
5428;SDS011;2737;52.386;9.980;2023-07-13T00:26:28;3.07;;;1.93;;
5428;SDS011;2737;52.386;9.980;2023-07-13T00:28:57;4.40;;;2.10;;
5428;SDS011;2737;52.386;9.980;2023-07-13T00:31:24;7.67;;;2.60;;
5428;SDS011;2737;52.386;9.980;2023-07-13T00:33:51;2.10;;;1.60;;
5428;SDS011;2737;52.386;9.980;2023-07-13T00:36:20;4.60;;;1.87;;
5428;SDS011;2737;52.386;9.980;2023-07-13T00:38:47;4.90;;;2.10;;
5428;SDS011;2737;52.386;9.980;2023-07-13T00:41:14;4.27;;;2.17;;
5428;SDS011;2737;52.386;9.980;2023-07-13T00:43:41;5.23;;;2.10;;
5428;SDS011;2737;52.386;9.980;2023-07-13T00:46:22;7.20;;;1.93;;
5428;SDS011;2737;52.386;9.980;2023-07-13T00:48:51;3.63;;;2.17;;
5428;SDS011;2737;52.386;9.980;2023-07-13T00:51:24;5.60;;;2.40;;
5428;SDS011;2737;52.386;9.980;2023-07-13T00:53:55;4.53;;;2.23;;
5428;SDS011;2737;52.386;9.980;2023-07-13T00:56:24;9.97;;;2.37;;
5428;SDS011;2737;52.386;9.980;2023-07-13T00:58:51;4.33;;;2.00;;
5428;SDS011;2737;52.386;9.980;2023-07-13T01:01:19;5.23;;;2.60;;
5428;SDS011;2737;52.386;9.980;2023-07-13T01:03:46;3.93;;;1.90;;
5428;SDS011;2737;52.386;9.980;2023-07-13T01:06:13;2.90;;;2.30;;
5428;SDS011;2737;52.386;9.980;2023-07-13T01:08:44;6.10;;;2.10;;
5428;SDS011;2737;52.386;9.980;2023-07-13T01:11:11;4.10;;;2.03;;
5428;SDS011;2737;52.386;9.980;2023-07-13T01:13:38;8.40;;;2.20;;
5428;SDS011;2737;52.386;9.980;2023-07-13T01:16:05;5.53;;;2.30;;
5428;SDS011;2737;52.386;9.980;2023-07-13T01:18:41;4.07;;;1.83;;
5428;SDS011;2737;52.386;9.980;2023-07-13T01:21:09;5.70;;;2.10;;
5428;SDS011;2737;52.386;9.980;2023-07-13T01:23:36;6.37;;;1.87;;
5428;SDS011;2737;52.386;9.980;2023-07-13T01:26:03;2.83;;;2.10;;
5428;SDS011;2737;52.386;9.980;2023-07-13T01:28:30;4.30;;;2.00;;
5428;SDS011;2737;52.386;9.980;2023-07-13T01:31:02;2.33;;;1.73;;
5428;SDS011;2737;52.386;9.980;2023-07-13T01:33:29;2.70;;;1.80;;
5428;SDS011;2737;52.386;9.980;2023-07-13T01:35:56;5.43;;;1.70;;
5428;SDS011;2737;52.386;9.980;2023-07-13T01:38:25;4.70;;;2.20;;
5428;SDS011;2737;52.386;9.980;2023-07-13T01:40:52;4.60;;;2.00;;
5428;SDS011;2737;52.386;9.980;2023-07-13T01:43:20;4.63;;;1.73;;
5428;SDS011;2737;52.386;9.980;2023-07-13T01:45:47;3.50;;;1.83;;
5428;SDS011;2737;52.386;9.980;2023-07-13T01:48:14;5.03;;;2.00;;
5428;SDS011;2737;52.386;9.980;2023-07-13T01:50:41;3.67;;;1.90;;
5428;SDS011;2737;52.386;9.980;2023-07-13T01:53:08;4.87;;;2.37;;
5428;SDS011;2737;52.386;9.980;2023-07-13T01:55:37;6.77;;;2.03;;
5428;SDS011;2737;52.386;9.980;2023-07-13T01:58:04;4.33;;;2.40;;
5428;SDS011;2737;52.386;9.980;2023-07-13T02:00:32;7.73;;;2.40;;
5428;SDS011;2737;52.386;9.980;2023-07-13T02:02:59;5.00;;;2.20;;
5428;SDS011;2737;52.386;9.980;2023-07-13T02:05:26;6.07;;;2.27;;
5428;SDS011;2737;52.386;9.980;2023-07-13T02:07:53;5.60;;;2.37;;
5428;SDS011;2737;52.386;9.980;2023-07-13T02:10:20;6.67;;;2.83;;
5428;SDS011;2737;52.386;9.980;2023-07-13T02:12:49;3.67;;;2.10;;
5428;SDS011;2737;52.386;9.980;2023-07-13T02:15:17;8.13;;;2.63;;
5428;SDS011;2737;52.386;9.980;2023-07-13T02:17:44;2.90;;;2.50;;
5428;SDS011;2737;52.386;9.980;2023-07-13T02:20:12;7.00;;;2.50;;
5428;SDS011;2737;52.386;9.980;2023-07-13T02:22:39;5.50;;;2.50;;
5428;SDS011;2737;52.386;9.980;2023-07-13T02:25:06;6.10;;;2.13;;
5428;SDS011;2737;52.386;9.980;2023-07-13T02:27:34;6.37;;;2.70;;
5428;SDS011;2737;52.386;9.980;2023-07-13T02:30:02;4.37;;;2.33;;
5428;SDS011;2737;52.386;9.980;2023-07-13T02:32:30;3.77;;;2.30;;
5428;SDS011;2737;52.386;9.980;2023-07-13T02:34:57;4.33;;;2.50;;
5428;SDS011;2737;52.386;9.980;2023-07-13T02:37:24;3.23;;;2.37;;
5428;SDS011;2737;52.386;9.980;2023-07-13T02:39:51;4.30;;;2.50;;
5428;SDS011;2737;52.386;9.980;2023-07-13T02:42:19;3.77;;;2.10;;
5428;SDS011;2737;52.386;9.980;2023-07-13T02:44:46;4.30;;;2.17;;
5428;SDS011;2737;52.386;9.980;2023-07-13T02:47:16;3.03;;;2.20;;
5428;SDS011;2737;52.386;9.980;2023-07-13T02:49:43;2.60;;;2.40;;
5428;SDS011;2737;52.386;9.980;2023-07-13T02:52:10;3.17;;;2.07;;
5428;SDS011;2737;52.386;9.980;2023-07-13T02:54:37;6.63;;;2.30;;
5428;SDS011;2737;52.386;9.980;2023-07-13T02:57:04;12.37;;;3.10;;
5428;SDS011;2737;52.386;9.980;2023-07-13T02:59:31;8.00;;;2.70;;
5428;SDS011;2737;52.386;9.980;2023-07-13T03:02:00;8.20;;;3.00;;
5428;SDS011;2737;52.386;9.980;2023-07-13T03:04:28;4.03;;;2.00;;
5428;SDS011;2737;52.386;9.980;2023-07-13T03:06:55;6.53;;;2.40;;
5428;SDS011;2737;52.386;9.980;2023-07-13T03:09:23;6.23;;;2.40;;
5428;SDS011;2737;52.386;9.980;2023-07-13T03:11:52;3.70;;;1.97;;
5428;SDS011;2737;52.386;9.980;2023-07-13T03:14:19;5.90;;;2.50;;
5428;SDS011;2737;52.386;9.980;2023-07-13T03:16:46;5.73;;;2.30;;
5428;SDS011;2737;52.386;9.980;2023-07-13T03:19:13;6.63;;;2.83;;
5428;SDS011;2737;52.386;9.980;2023-07-13T03:21:42;9.00;;;2.10;;
5428;SDS011;2737;52.386;9.980;2023-07-13T03:24:09;4.53;;;2.40;;
5428;SDS011;2737;52.386;9.980;2023-07-13T03:26:36;4.80;;;2.50;;
5428;SDS011;2737;52.386;9.980;2023-07-13T03:29:03;4.20;;;2.37;;
5428;SDS011;2737;52.386;9.980;2023-07-13T03:31:32;8.60;;;3.43;;
5428;SDS011;2737;52.386;9.980;2023-07-13T03:34:01;6.63;;;2.70;;
5428;SDS011;2737;52.386;9.980;2023-07-13T03:36:29;6.07;;;2.20;;
5428;SDS011;2737;52.386;9.980;2023-07-13T03:39:00;4.00;;;2.17;;
5428;SDS011;2737;52.386;9.980;2023-07-13T03:41:29;4.20;;;2.20;;
5428;SDS011;2737;52.386;9.980;2023-07-13T03:43:56;3.27;;;2.30;;
5428;SDS011;2737;52.386;9.980;2023-07-13T03:46:24;4.00;;;2.43;;
5428;SDS011;2737;52.386;9.980;2023-07-13T03:48:51;4.80;;;2.90;;
5428;SDS011;2737;52.386;9.980;2023-07-13T03:51:18;3.50;;;2.20;;
5428;SDS011;2737;52.386;9.980;2023-07-13T03:53:46;3.60;;;2.10;;
5428;SDS011;2737;52.386;9.980;2023-07-13T03:56:15;6.83;;;2.53;;
5428;SDS011;2737;52.386;9.980;2023-07-13T03:58:44;6.03;;;2.50;;
5428;SDS011;2737;52.386;9.980;2023-07-13T04:01:13;8.73;;;2.47;;
5428;SDS011;2737;52.386;9.980;2023-07-13T04:03:41;5.67;;;2.10;;
5428;SDS011;2737;52.386;9.980;2023-07-13T04:06:12;5.87;;;2.90;;
5428;SDS011;2737;52.386;9.980;2023-07-13T04:08:46;5.97;;;2.23;;
5428;SDS011;2737;52.386;9.980;2023-07-13T04:11:16;5.60;;;2.70;;
5428;SDS011;2737;52.386;9.980;2023-07-13T04:13:44;12.17;;;2.53;;
5428;SDS011;2737;52.386;9.980;2023-07-13T04:16:11;9.80;;;2.57;;
5428;SDS011;2737;52.386;9.980;2023-07-13T04:18:38;3.77;;;2.30;;
5428;SDS011;2737;52.386;9.980;2023-07-13T04:21:06;5.13;;;2.63;;
5428;SDS011;2737;52.386;9.980;2023-07-13T04:23:33;5.60;;;2.33;;
5428;SDS011;2737;52.386;9.980;2023-07-13T04:26:01;5.43;;;2.13;;
5428;SDS011;2737;52.386;9.980;2023-07-13T04:28:29;5.23;;;2.80;;
5428;SDS011;2737;52.386;9.980;2023-07-13T04:30:56;4.17;;;2.30;;
5428;SDS011;2737;52.386;9.980;2023-07-13T04:33:24;4.37;;;2.00;;
5428;SDS011;2737;52.386;9.980;2023-07-13T04:35:51;5.00;;;2.53;;
5428;SDS011;2737;52.386;9.980;2023-07-13T04:38:21;3.47;;;1.93;;
5428;SDS011;2737;52.386;9.980;2023-07-13T04:40:49;4.80;;;1.70;;
5428;SDS011;2737;52.386;9.980;2023-07-13T04:43:17;8.07;;;2.23;;
5428;SDS011;2737;52.386;9.980;2023-07-13T04:45:46;3.90;;;2.20;;
5428;SDS011;2737;52.386;9.980;2023-07-13T04:48:13;4.50;;;2.00;;
5428;SDS011;2737;52.386;9.980;2023-07-13T04:50:40;7.43;;;2.57;;
5428;SDS011;2737;52.386;9.980;2023-07-13T04:53:08;5.80;;;2.27;;
5428;SDS011;2737;52.386;9.980;2023-07-13T04:55:36;3.17;;;2.50;;
5428;SDS011;2737;52.386;9.980;2023-07-13T04:58:04;8.60;;;2.30;;
5428;SDS011;2737;52.386;9.980;2023-07-13T05:00:31;4.97;;;2.07;;
5428;SDS011;2737;52.386;9.980;2023-07-13T05:02:59;1.90;;;1.70;;
5428;SDS011;2737;52.386;9.980;2023-07-13T05:05:27;6.53;;;2.00;;
5428;SDS011;2737;52.386;9.980;2023-07-13T05:07:54;6.80;;;1.90;;
5428;SDS011;2737;52.386;9.980;2023-07-13T05:10:21;8.60;;;2.40;;
5428;SDS011;2737;52.386;9.980;2023-07-13T05:12:48;2.00;;;1.60;;
5428;SDS011;2737;52.386;9.980;2023-07-13T05:15:16;7.60;;;1.90;;
5428;SDS011;2737;52.386;9.980;2023-07-13T05:17:46;4.63;;;2.30;;
5428;SDS011;2737;52.386;9.980;2023-07-13T05:20:14;5.17;;;1.90;;
5428;SDS011;2737;52.386;9.980;2023-07-13T05:22:43;6.27;;;1.90;;
5428;SDS011;2737;52.386;9.980;2023-07-13T05:25:12;10.63;;;2.47;;
5428;SDS011;2737;52.386;9.980;2023-07-13T05:27:39;7.73;;;2.07;;
5428;SDS011;2737;52.386;9.980;2023-07-13T05:30:07;6.73;;;2.00;;
5428;SDS011;2737;52.386;9.980;2023-07-13T05:32:36;8.50;;;1.90;;
5428;SDS011;2737;52.386;9.980;2023-07-13T05:35:03;5.00;;;2.33;;
5428;SDS011;2737;52.386;9.980;2023-07-13T05:37:32;6.00;;;1.97;;
5428;SDS011;2737;52.386;9.980;2023-07-13T05:39:59;10.17;;;2.20;;
5428;SDS011;2737;52.386;9.980;2023-07-13T05:42:26;13.37;;;2.33;;
5428;SDS011;2737;52.386;9.980;2023-07-13T05:44:53;8.37;;;2.07;;
5428;SDS011;2737;52.386;9.980;2023-07-13T05:47:20;10.10;;;2.23;;
5428;SDS011;2737;52.386;9.980;2023-07-13T05:49:47;11.93;;;1.70;;
5428;SDS011;2737;52.386;9.980;2023-07-13T05:52:14;6.83;;;1.97;;
5428;SDS011;2737;52.386;9.980;2023-07-13T05:54:43;8.00;;;1.80;;
5428;SDS011;2737;52.386;9.980;2023-07-13T05:57:10;6.10;;;1.80;;
5428;SDS011;2737;52.386;9.980;2023-07-13T05:59:37;6.73;;;1.60;;
5428;SDS011;2737;52.386;9.980;2023-07-13T06:02:04;3.70;;;1.43;;
5428;SDS011;2737;52.386;9.980;2023-07-13T06:04:34;6.30;;;1.90;;
5428;SDS011;2737;52.386;9.980;2023-07-13T06:07:01;8.20;;;2.00;;
5428;SDS011;2737;52.386;9.980;2023-07-13T06:09:28;5.53;;;2.10;;
5428;SDS011;2737;52.386;9.980;2023-07-13T06:11:57;4.40;;;2.00;;
5428;SDS011;2737;52.386;9.980;2023-07-13T06:14:24;9.90;;;1.90;;
5428;SDS011;2737;52.386;9.980;2023-07-13T06:16:51;9.67;;;2.60;;
5428;SDS011;2737;52.386;9.980;2023-07-13T06:19:18;8.10;;;2.13;;
5428;SDS011;2737;52.386;9.980;2023-07-13T06:21:45;8.20;;;2.43;;
5428;SDS011;2737;52.386;9.980;2023-07-13T06:24:12;5.60;;;1.90;;
5428;SDS011;2737;52.386;9.980;2023-07-13T06:26:39;11.03;;;2.20;;
5428;SDS011;2737;52.386;9.980;2023-07-13T06:29:08;9.23;;;1.80;;
5428;SDS011;2737;52.386;9.980;2023-07-13T06:31:35;4.90;;;2.20;;
5428;SDS011;2737;52.386;9.980;2023-07-13T06:34:02;8.30;;;2.00;;
5428;SDS011;2737;52.386;9.980;2023-07-13T06:36:29;5.27;;;1.97;;
5428;SDS011;2737;52.386;9.980;2023-07-13T06:38:56;4.40;;;1.90;;
5428;SDS011;2737;52.386;9.980;2023-07-13T06:41:23;4.40;;;1.80;;
5428;SDS011;2737;52.386;9.980;2023-07-13T06:43:51;8.73;;;2.03;;
5428;SDS011;2737;52.386;9.980;2023-07-13T06:46:21;5.97;;;1.67;;
5428;SDS011;2737;52.386;9.980;2023-07-13T06:48:48;8.27;;;2.20;;
5428;SDS011;2737;52.386;9.980;2023-07-13T06:51:16;6.53;;;2.17;;
5428;SDS011;2737;52.386;9.980;2023-07-13T06:53:43;6.47;;;2.27;;
5428;SDS011;2737;52.386;9.980;2023-07-13T06:56:10;6.93;;;2.10;;
5428;SDS011;2737;52.386;9.980;2023-07-13T06:58:37;7.97;;;3.10;;
5428;SDS011;2737;52.386;9.980;2023-07-13T07:01:04;6.90;;;2.20;;
5428;SDS011;2737;52.386;9.980;2023-07-13T07:03:33;11.93;;;2.57;;
5428;SDS011;2737;52.386;9.980;2023-07-13T07:06:00;8.75;;;2.33;;
5428;SDS011;2737;52.386;9.980;2023-07-13T07:08:28;6.70;;;1.95;;
5428;SDS011;2737;52.386;9.980;2023-07-13T07:10:55;7.68;;;2.40;;
5428;SDS011;2737;52.386;9.980;2023-07-13T07:13:22;8.50;;;2.53;;
5428;SDS011;2737;52.386;9.980;2023-07-13T07:15:49;6.15;;;2.38;;
5428;SDS011;2737;52.386;9.980;2023-07-13T07:18:17;6.13;;;2.30;;
5428;SDS011;2737;52.386;9.980;2023-07-13T07:20:46;10.60;;;2.58;;
5428;SDS011;2737;52.386;9.980;2023-07-13T07:23:13;6.40;;;2.20;;
5428;SDS011;2737;52.386;9.980;2023-07-13T07:25:40;6.43;;;2.07;;
5428;SDS011;2737;52.386;9.980;2023-07-13T07:28:09;10.13;;;2.53;;
5428;SDS011;2737;52.386;9.980;2023-07-13T07:30:36;8.20;;;2.20;;
5428;SDS011;2737;52.386;9.980;2023-07-13T07:33:03;7.55;;;1.90;;
5428;SDS011;2737;52.386;9.980;2023-07-13T07:35:30;7.80;;;2.33;;
5428;SDS011;2737;52.386;9.980;2023-07-13T07:37:59;7.93;;;2.00;;
5428;SDS011;2737;52.386;9.980;2023-07-13T07:40:26;6.03;;;1.63;;
5428;SDS011;2737;52.386;9.980;2023-07-13T07:42:53;7.73;;;1.70;;
5428;SDS011;2737;52.386;9.980;2023-07-13T07:45:20;3.60;;;1.90;;
5428;SDS011;2737;52.386;9.980;2023-07-13T07:47:47;9.23;;;2.17;;
5428;SDS011;2737;52.386;9.980;2023-07-13T07:50:15;7.33;;;1.80;;
5428;SDS011;2737;52.386;9.980;2023-07-13T07:52:45;4.27;;;1.50;;
5428;SDS011;2737;52.386;9.980;2023-07-13T07:55:13;6.30;;;1.70;;
5428;SDS011;2737;52.386;9.980;2023-07-13T07:57:40;3.03;;;1.70;;
5428;SDS011;2737;52.386;9.980;2023-07-13T08:00:07;5.70;;;1.70;;
5428;SDS011;2737;52.386;9.980;2023-07-13T08:02:35;3.63;;;1.40;;
5428;SDS011;2737;52.386;9.980;2023-07-13T08:05:02;3.30;;;1.60;;
5428;SDS011;2737;52.386;9.980;2023-07-13T08:07:30;6.25;;;1.77;;
5428;SDS011;2737;52.386;9.980;2023-07-13T08:09:57;4.43;;;1.60;;
5428;SDS011;2737;52.386;9.980;2023-07-13T08:12:25;6.10;;;2.30;;
5428;SDS011;2737;52.386;9.980;2023-07-13T08:14:53;4.60;;;1.50;;
5428;SDS011;2737;52.386;9.980;2023-07-13T08:17:22;3.75;;;1.80;;
5428;SDS011;2737;52.386;9.980;2023-07-13T08:19:50;3.07;;;1.43;;
5428;SDS011;2737;52.386;9.980;2023-07-13T08:22:17;3.70;;;1.73;;
5428;SDS011;2737;52.386;9.980;2023-07-13T08:24:44;3.60;;;1.50;;
5428;SDS011;2737;52.386;9.980;2023-07-13T08:27:12;3.60;;;1.60;;
5428;SDS011;2737;52.386;9.980;2023-07-13T08:29:40;4.72;;;1.60;;
5428;SDS011;2737;52.386;9.980;2023-07-13T08:32:08;4.50;;;1.50;;
5428;SDS011;2737;52.386;9.980;2023-07-13T08:34:36;8.23;;;1.70;;
5428;SDS011;2737;52.386;9.980;2023-07-13T08:37:03;5.33;;;1.60;;
5428;SDS011;2737;52.386;9.980;2023-07-13T08:39:30;5.50;;;1.80;;
5428;SDS011;2737;52.386;9.980;2023-07-13T08:41:59;6.10;;;1.23;;
5428;SDS011;2737;52.386;9.980;2023-07-13T08:44:40;6.47;;;2.07;;
5428;SDS011;2737;52.386;9.980;2023-07-13T08:47:17;6.43;;;1.40;;
5428;SDS011;2737;52.386;9.980;2023-07-13T08:49:47;4.67;;;1.50;;
5428;SDS011;2737;52.386;9.980;2023-07-13T08:52:17;4.70;;;2.23;;
5428;SDS011;2737;52.386;9.980;2023-07-13T08:54:55;5.73;;;1.50;;
5428;SDS011;2737;52.386;9.980;2023-07-13T08:57:26;4.67;;;1.50;;
5428;SDS011;2737;52.386;9.980;2023-07-13T08:59:59;3.70;;;1.60;;
5428;SDS011;2737;52.386;9.980;2023-07-13T09:02:26;10.83;;;1.70;;
5428;SDS011;2737;52.386;9.980;2023-07-13T09:04:59;11.77;;;1.58;;
5428;SDS011;2737;52.386;9.980;2023-07-13T09:07:32;6.40;;;1.80;;
5428;SDS011;2737;52.386;9.980;2023-07-13T09:10:17;6.20;;;1.53;;
5428;SDS011;2737;52.386;9.980;2023-07-13T09:12:53;5.68;;;1.73;;
5428;SDS011;2737;52.386;9.980;2023-07-13T09:15:32;4.57;;;1.73;;
5428;SDS011;2737;52.386;9.980;2023-07-13T09:18:04;10.63;;;1.98;;
5428;SDS011;2737;52.386;9.980;2023-07-13T09:20:37;4.73;;;2.00;;
5428;SDS011;2737;52.386;9.980;2023-07-13T09:23:11;7.97;;;1.70;;
5428;SDS011;2737;52.386;9.980;2023-07-13T09:25:43;7.68;;;1.85;;
5428;SDS011;2737;52.386;9.980;2023-07-13T09:28:16;6.65;;;2.00;;
5428;SDS011;2737;52.386;9.980;2023-07-13T09:30:51;4.63;;;1.48;;
5428;SDS011;2737;52.386;9.980;2023-07-13T09:33:22;7.30;;;1.90;;
5428;SDS011;2737;52.386;9.980;2023-07-13T09:35:50;4.43;;;1.60;;
5428;SDS011;2737;52.386;9.980;2023-07-13T09:38:17;7.53;;;1.77;;
5428;SDS011;2737;52.386;9.980;2023-07-13T09:46:45;6.80;;;1.60;;
5428;SDS011;2737;52.386;9.980;2023-07-13T09:49:17;4.68;;;1.52;;
5428;SDS011;2737;52.386;9.980;2023-07-13T09:51:45;8.45;;;1.70;;
5428;SDS011;2737;52.386;9.980;2023-07-13T09:54:18;6.32;;;1.85;;
5428;SDS011;2737;52.386;9.980;2023-07-13T09:56:48;4.57;;;1.60;;
5428;SDS011;2737;52.386;9.980;2023-07-13T09:59:20;10.15;;;1.80;;
5428;SDS011;2737;52.386;9.980;2023-07-13T10:01:50;9.35;;;1.85;;
5428;SDS011;2737;52.386;9.980;2023-07-13T10:04:17;3.15;;;1.58;;
5428;SDS011;2737;52.386;9.980;2023-07-13T10:06:46;5.53;;;1.80;;
5428;SDS011;2737;52.386;9.980;2023-07-13T10:09:15;5.57;;;1.65;;
5428;SDS011;2737;52.386;9.980;2023-07-13T10:11:44;4.72;;;1.67;;
5428;SDS011;2737;52.386;9.980;2023-07-13T10:14:12;4.03;;;1.85;;
5428;SDS011;2737;52.386;9.980;2023-07-13T10:16:41;3.47;;;1.60;;
5428;SDS011;2737;52.386;9.980;2023-07-13T10:19:13;7.60;;;1.50;;
5428;SDS011;2737;52.386;9.980;2023-07-13T10:21:47;3.80;;;1.73;;
5428;SDS011;2737;52.386;9.980;2023-07-13T10:24:20;5.28;;;1.27;;
5428;SDS011;2737;52.386;9.980;2023-07-13T10:27:00;10.25;;;2.08;;
5428;SDS011;2737;52.386;9.980;2023-07-13T10:29:34;9.93;;;1.70;;
5428;SDS011;2737;52.386;9.980;2023-07-13T10:32:04;7.55;;;1.98;;
5428;SDS011;2737;52.386;9.980;2023-07-13T10:34:38;6.10;;;1.80;;
5428;SDS011;2737;52.386;9.980;2023-07-13T10:37:05;3.75;;;1.48;;
5428;SDS011;2737;52.386;9.980;2023-07-13T10:39:41;4.25;;;1.50;;
5428;SDS011;2737;52.386;9.980;2023-07-13T10:42:10;5.55;;;1.67;;
5428;SDS011;2737;52.386;9.980;2023-07-13T10:44:41;8.57;;;1.30;;
5428;SDS011;2737;52.386;9.980;2023-07-13T10:47:11;7.10;;;1.50;;
5428;SDS011;2737;52.386;9.980;2023-07-13T10:49:44;6.55;;;2.13;;
5428;SDS011;2737;52.386;9.980;2023-07-13T10:55:14;3.78;;;1.45;;
5428;SDS011;2737;52.386;9.980;2023-07-13T10:57:59;4.78;;;1.58;;
5428;SDS011;2737;52.386;9.980;2023-07-13T11:00:30;6.15;;;1.27;;
5428;SDS011;2737;52.386;9.980;2023-07-13T11:03:00;4.85;;;1.50;;
5428;SDS011;2737;52.386;9.980;2023-07-13T11:05:30;4.57;;;1.85;;
5428;SDS011;2737;52.386;9.980;2023-07-13T11:08:03;3.53;;;1.58;;
5428;SDS011;2737;52.386;9.980;2023-07-13T11:10:47;3.05;;;1.27;;
5428;SDS011;2737;52.386;9.980;2023-07-13T11:13:36;4.40;;;1.50;;
5428;SDS011;2737;52.386;9.980;2023-07-13T11:19:28;6.07;;;1.45;;
5428;SDS011;2737;52.386;9.980;2023-07-13T11:22:14;3.08;;;1.20;;
5428;SDS011;2737;52.386;9.980;2023-07-13T11:24:56;7.03;;;1.65;;
5428;SDS011;2737;52.386;9.980;2023-07-13T11:27:39;2.95;;;1.52;;
5428;SDS011;2737;52.386;9.980;2023-07-13T11:30:17;3.78;;;1.45;;
5428;SDS011;2737;52.386;9.980;2023-07-13T11:32:50;3.92;;;1.60;;
5428;SDS011;2737;52.386;9.980;2023-07-13T11:35:23;5.82;;;1.65;;
5428;SDS011;2737;52.386;9.980;2023-07-13T11:37:55;4.47;;;1.67;;
5428;SDS011;2737;52.386;9.980;2023-07-13T11:40:22;5.40;;;1.20;;
5428;SDS011;2737;52.386;9.980;2023-07-13T11:42:58;3.30;;;1.55;;
5428;SDS011;2737;52.386;9.980;2023-07-13T11:45:26;4.82;;;1.33;;
5428;SDS011;2737;52.386;9.980;2023-07-13T11:47:53;3.47;;;1.88;;
5428;SDS011;2737;52.386;9.980;2023-07-13T11:50:22;7.22;;;2.22;;
5428;SDS011;2737;52.386;9.980;2023-07-13T11:52:50;8.13;;;1.90;;
5428;SDS011;2737;52.386;9.980;2023-07-13T11:55:22;7.55;;;1.40;;
5428;SDS011;2737;52.386;9.980;2023-07-13T11:57:51;7.05;;;1.75;;
5428;SDS011;2737;52.386;9.980;2023-07-13T12:00:23;4.32;;;1.40;;
5428;SDS011;2737;52.386;9.980;2023-07-13T12:02:58;2.50;;;1.40;;
5428;SDS011;2737;52.386;9.980;2023-07-13T12:05:27;3.58;;;1.60;;
5428;SDS011;2737;52.386;9.980;2023-07-13T12:07:55;2.38;;;1.48;;
5428;SDS011;2737;52.386;9.980;2023-07-13T12:10:24;5.18;;;1.30;;
5428;SDS011;2737;52.386;9.980;2023-07-13T12:12:55;1.45;;;1.27;;
5428;SDS011;2737;52.386;9.980;2023-07-13T12:15:23;4.68;;;1.67;;
5428;SDS011;2737;52.386;9.980;2023-07-13T12:17:57;4.38;;;1.63;;
5428;SDS011;2737;52.386;9.980;2023-07-13T12:20:25;2.45;;;1.52;;
5428;SDS011;2737;52.386;9.980;2023-07-13T12:22:53;4.07;;;1.58;;
5428;SDS011;2737;52.386;9.980;2023-07-13T12:25:20;2.63;;;1.63;;
5428;SDS011;2737;52.386;9.980;2023-07-13T12:27:50;2.20;;;1.23;;
5428;SDS011;2737;52.386;9.980;2023-07-13T12:30:25;6.10;;;1.55;;
5428;SDS011;2737;52.386;9.980;2023-07-13T12:32:58;5.00;;;1.50;;
5428;SDS011;2737;52.386;9.980;2023-07-13T12:35:27;2.75;;;1.27;;
5428;SDS011;2737;52.386;9.980;2023-07-13T12:38:00;2.53;;;1.20;;
5428;SDS011;2737;52.386;9.980;2023-07-13T12:40:29;2.08;;;1.20;;
5428;SDS011;2737;52.386;9.980;2023-07-13T12:43:01;3.17;;;1.15;;
5428;SDS011;2737;52.386;9.980;2023-07-13T12:45:29;4.57;;;1.17;;
5428;SDS011;2737;52.386;9.980;2023-07-13T12:47:57;2.85;;;1.30;;
5428;SDS011;2737;52.386;9.980;2023-07-13T12:50:29;4.68;;;1.55;;
5428;SDS011;2737;52.386;9.980;2023-07-13T12:53:01;2.95;;;1.45;;
5428;SDS011;2737;52.386;9.980;2023-07-13T12:55:39;2.13;;;1.30;;
5428;SDS011;2737;52.386;9.980;2023-07-13T12:58:13;3.38;;;1.30;;
5428;SDS011;2737;52.386;9.980;2023-07-13T13:00:48;3.50;;;1.65;;
5428;SDS011;2737;52.386;9.980;2023-07-13T13:03:21;2.47;;;1.48;;
5428;SDS011;2737;52.386;9.980;2023-07-13T13:05:56;3.55;;;1.50;;
5428;SDS011;2737;52.386;9.980;2023-07-13T13:08:25;3.10;;;1.50;;
5428;SDS011;2737;52.386;9.980;2023-07-13T13:10:52;4.68;;;1.50;;
5428;SDS011;2737;52.386;9.980;2023-07-13T13:13:21;2.50;;;1.35;;
5428;SDS011;2737;52.386;9.980;2023-07-13T13:15:48;1.58;;;1.10;;
5428;SDS011;2737;52.386;9.980;2023-07-13T13:18:16;4.80;;;1.60;;
5428;SDS011;2737;52.386;9.980;2023-07-13T13:20:44;3.40;;;1.30;;
5428;SDS011;2737;52.386;9.980;2023-07-13T13:23:12;3.83;;;1.65;;
5428;SDS011;2737;52.386;9.980;2023-07-13T13:25:42;1.75;;;1.35;;
5428;SDS011;2737;52.386;9.980;2023-07-13T13:28:14;8.02;;;1.98;;
5428;SDS011;2737;52.386;9.980;2023-07-13T13:30:44;3.60;;;1.50;;
5428;SDS011;2737;52.386;9.980;2023-07-13T13:33:13;5.35;;;2.13;;
5428;SDS011;2737;52.386;9.980;2023-07-13T13:35:44;4.90;;;1.77;;
5428;SDS011;2737;52.386;9.980;2023-07-13T13:38:11;7.63;;;2.05;;
5428;SDS011;2737;52.386;9.980;2023-07-13T13:40:39;14.13;;;2.13;;
5428;SDS011;2737;52.386;9.980;2023-07-13T13:43:13;6.07;;;3.17;;
5428;SDS011;2737;52.386;9.980;2023-07-13T13:45:42;3.95;;;1.70;;
5428;SDS011;2737;52.386;9.980;2023-07-13T13:48:14;6.15;;;1.70;;
5428;SDS011;2737;52.386;9.980;2023-07-13T13:50:43;3.40;;;1.92;;
5428;SDS011;2737;52.386;9.980;2023-07-13T13:53:11;4.00;;;2.00;;
5428;SDS011;2737;52.386;9.980;2023-07-13T13:55:39;4.27;;;1.70;;
5428;SDS011;2737;52.386;9.980;2023-07-13T13:58:07;6.57;;;1.57;;
5428;SDS011;2737;52.386;9.980;2023-07-13T14:00:35;4.93;;;1.60;;
5428;SDS011;2737;52.386;9.980;2023-07-13T14:03:03;3.10;;;1.57;;
5428;SDS011;2737;52.386;9.980;2023-07-13T14:05:33;4.43;;;1.80;;
5428;SDS011;2737;52.386;9.980;2023-07-13T14:08:01;2.90;;;1.70;;
5428;SDS011;2737;52.386;9.980;2023-07-13T14:10:28;2.73;;;1.30;;
5428;SDS011;2737;52.386;9.980;2023-07-13T14:12:55;2.20;;;1.27;;
5428;SDS011;2737;52.386;9.980;2023-07-13T14:15:24;2.20;;;1.30;;
5428;SDS011;2737;52.386;9.980;2023-07-13T14:17:53;3.10;;;1.70;;
5428;SDS011;2737;52.386;9.980;2023-07-13T14:20:23;2.90;;;1.50;;
5428;SDS011;2737;52.386;9.980;2023-07-13T14:22:52;5.73;;;1.43;;
5428;SDS011;2737;52.386;9.980;2023-07-13T14:25:20;3.90;;;1.63;;
5428;SDS011;2737;52.386;9.980;2023-07-13T14:27:48;3.80;;;1.50;;
5428;SDS011;2737;52.386;9.980;2023-07-13T14:30:21;2.70;;;1.23;;
5428;SDS011;2737;52.386;9.980;2023-07-13T14:32:49;2.43;;;1.90;;
5428;SDS011;2737;52.386;9.980;2023-07-13T14:35:17;3.00;;;1.43;;
5428;SDS011;2737;52.386;9.980;2023-07-13T14:37:49;2.50;;;1.77;;
5428;SDS011;2737;52.386;9.980;2023-07-13T14:40:19;4.20;;;1.90;;
5428;SDS011;2737;52.386;9.980;2023-07-13T14:42:51;3.70;;;1.77;;
5428;SDS011;2737;52.386;9.980;2023-07-13T14:45:19;3.47;;;1.30;;
5428;SDS011;2737;52.386;9.980;2023-07-13T14:47:47;3.00;;;1.40;;
5428;SDS011;2737;52.386;9.980;2023-07-13T14:50:15;2.40;;;1.47;;
5428;SDS011;2737;52.386;9.980;2023-07-13T14:52:44;5.60;;;1.90;;
5428;SDS011;2737;52.386;9.980;2023-07-13T14:55:14;3.40;;;1.67;;
5428;SDS011;2737;52.386;9.980;2023-07-13T14:57:46;3.80;;;2.30;;
5428;SDS011;2737;52.386;9.980;2023-07-13T15:00:16;4.97;;;1.60;;
5428;SDS011;2737;52.386;9.980;2023-07-13T15:02:47;2.60;;;1.80;;
5428;SDS011;2737;52.386;9.980;2023-07-13T15:05:17;6.63;;;1.77;;
5428;SDS011;2737;52.386;9.980;2023-07-13T15:07:52;7.30;;;2.23;;
5428;SDS011;2737;52.386;9.980;2023-07-13T15:10:20;4.60;;;1.80;;
5428;SDS011;2737;52.386;9.980;2023-07-13T15:12:52;2.10;;;1.53;;
5428;SDS011;2737;52.386;9.980;2023-07-13T15:15:19;3.80;;;1.63;;
5428;SDS011;2737;52.386;9.980;2023-07-13T15:17:47;3.77;;;1.50;;
5428;SDS011;2737;52.386;9.980;2023-07-13T15:20:16;2.43;;;1.40;;
5428;SDS011;2737;52.386;9.980;2023-07-13T15:22:47;3.23;;;1.60;;
5428;SDS011;2737;52.386;9.980;2023-07-13T15:25:16;11.33;;;2.03;;
5428;SDS011;2737;52.386;9.980;2023-07-13T15:27:45;3.00;;;1.20;;
5428;SDS011;2737;52.386;9.980;2023-07-13T15:30:14;3.70;;;1.60;;
5428;SDS011;2737;52.386;9.980;2023-07-13T15:32:41;3.40;;;1.83;;
5428;SDS011;2737;52.386;9.980;2023-07-13T15:35:18;3.77;;;1.70;;
5428;SDS011;2737;52.386;9.980;2023-07-13T15:37:47;3.93;;;2.00;;
5428;SDS011;2737;52.386;9.980;2023-07-13T15:40:15;2.90;;;1.40;;